Time;durP1;ratioP1;P1;durP2;ratioP2;P2;SDS_P1;SDS_P2;PMS_P1;PMS_P2;Temp;Humidity;BMP_temperature;BMP_pressure;BME280_temperature;BME280_humidity;BME280_pressure;Samples;Min_cycle;Max_cycle;Signal;HPM_P1;HPM_P2
2022/05/01 00:02:12;;;;;;;10.03;6.37;;;;;;;-145.68;100.00;63218.00;10578417;28;20228;-54
2022/05/01 00:08:11;;;;;;;9.93;6.47;;;;;;;-145.68;100.00;63218.00;10576485;28;20206;-54
2022/05/01 00:14:10;;;;;;;10.67;6.83;;;;;;;-145.68;100.00;63218.00;10578625;28;20231;-54
2022/05/01 00:20:10;;;;;;;14.83;6.23;;;;;;;-145.68;100.00;63218.00;10578122;28;20225;-54
2022/05/01 00:26:09;;;;;;;13.17;5.73;;;;;;;-145.68;100.00;63218.00;10577817;28;20612;-55
2022/05/01 00:32:08;;;;;;;11.03;6.30;;;;;;;-145.68;100.00;63218.00;10577495;28;20246;-55
2022/05/01 00:38:07;;;;;;;9.20;6.23;;;;;;;-145.68;100.00;63218.00;10558894;28;20279;-60
2022/05/01 00:44:08;;;;;;;9.53;6.20;;;;;;;-145.68;100.00;63218.00;10577379;28;20722;-59
2022/05/01 00:50:10;;;;;;;7.17;5.43;;;;;;;-145.68;100.00;63218.00;10576898;28;20214;-60
2022/05/01 00:56:09;;;;;;;11.20;5.60;;;;;;;-145.68;100.00;63218.00;10577062;28;20325;-58
2022/05/01 01:02:11;;;;;;;7.57;5.37;;;;;;;-145.68;100.00;63218.00;10576346;28;20262;-60
2022/05/01 01:08:10;;;;;;;14.17;6.57;;;;;;;-145.68;100.00;63218.00;10576620;28;20231;-59
2022/05/01 01:14:09;;;;;;;9.50;5.83;;;;;;;-145.68;100.00;63218.00;10576718;28;20186;-59
2022/05/01 01:20:08;;;;;;;13.33;7.07;;;;;;;-145.68;100.00;63218.00;10576781;28;20224;-55
2022/05/01 01:26:08;;;;;;;7.13;5.27;;;;;;;-145.68;100.00;63218.00;10576567;28;20197;-57
2022/05/01 01:32:08;;;;;;;8.20;5.10;;;;;;;-145.68;100.00;63218.00;10546260;22;20247;-55
2022/05/01 01:38:07;;;;;;;6.00;4.67;;;;;;;-145.68;100.00;63218.00;10433556;28;20250;-55
2022/05/01 01:44:08;;;;;;;9.53;6.27;;;;;;;-145.68;100.00;63218.00;10451261;28;20220;-54
2022/05/01 01:50:09;;;;;;;8.60;5.67;;;;;;;-145.68;100.00;63218.00;10452594;28;20195;-54
2022/05/01 01:56:08;;;;;;;11.63;6.73;;;;;;;-145.68;100.00;63218.00;10458415;28;20278;-53
2022/05/01 02:02:08;;;;;;;11.43;5.90;;;;;;;-145.68;100.00;63218.00;10457821;28;20720;-53
2022/05/01 02:08:08;;;;;;;7.77;5.70;;;;;;;-145.68;100.00;63218.00;10458187;28;20191;-55
2022/05/01 02:14:06;;;;;;;9.50;5.60;;;;;;;-145.68;100.00;63218.00;10457940;28;20212;-54
2022/05/01 02:20:06;;;;;;;12.60;6.50;;;;;;;-145.68;100.00;63218.00;10457575;28;20194;-54
2022/05/01 02:26:05;;;;;;;9.60;5.50;;;;;;;-145.68;100.00;63218.00;10457314;28;20203;-54
2022/05/01 02:32:05;;;;;;;9.87;5.80;;;;;;;-145.68;100.00;63218.00;10457258;28;20754;-58
2022/05/01 02:38:04;;;;;;;8.07;5.90;;;;;;;-145.68;100.00;63218.00;10456599;28;20678;-54
2022/05/01 02:44:03;;;;;;;7.90;5.43;;;;;;;-145.68;100.00;63218.00;10456122;28;20662;-59
2022/05/01 02:50:03;;;;;;;10.17;5.87;;;;;;;-145.68;100.00;63218.00;10457980;28;20752;-57
2022/05/01 02:56:02;;;;;;;9.30;6.23;;;;;;;-145.68;100.00;63218.00;10455717;28;20716;-60
2022/05/01 03:02:00;;;;;;;10.27;6.63;;;;;;;-145.68;100.00;63218.00;10454808;28;20666;-55
2022/05/01 03:07:59;;;;;;;9.57;6.10;;;;;;;-145.68;100.00;63218.00;10437526;28;20207;-55
2022/05/01 03:13:58;;;;;;;8.83;6.43;;;;;;;-145.68;100.00;63218.00;10455507;28;20207;-54
2022/05/01 03:26:18;;;;;;;11.57;6.30;;;;;;;-145.68;100.00;63218.00;10455097;28;20207;-58
2022/05/01 03:32:17;;;;;;;10.33;5.63;;;;;;;-145.68;100.00;63218.00;10454876;28;20301;-53
2022/05/01 03:38:16;;;;;;;9.80;5.87;;;;;;;-145.68;100.00;63218.00;10454516;28;20203;-55
2022/05/01 03:44:14;;;;;;;8.83;5.93;;;;;;;-145.68;100.00;63218.00;10454210;28;20708;-53
2022/05/01 03:50:13;;;;;;;8.37;5.30;;;;;;;-145.68;100.00;63218.00;10453740;28;20203;-56
2022/05/01 03:56:12;;;;;;;10.20;6.83;;;;;;;-145.68;100.00;63218.00;10454079;28;20191;-55
2022/05/01 04:02:11;;;;;;;10.47;5.97;;;;;;;-145.68;100.00;63218.00;10453719;28;20285;-55
2022/05/01 04:08:10;;;;;;;8.93;5.77;;;;;;;-145.68;100.00;63218.00;10453588;28;20688;-56
2022/05/01 04:14:11;;;;;;;6.93;5.40;;;;;;;-145.68;100.00;63218.00;10452375;28;20211;-56
2022/05/01 04:20:14;;;;;;;7.23;4.87;;;;;;;-145.68;100.00;63218.00;10452992;28;20200;-55
2022/05/01 04:26:14;;;;;;;8.33;5.70;;;;;;;-145.68;100.00;63218.00;10452851;28;20219;-56
2022/05/01 04:32:16;;;;;;;9.40;5.33;;;;;;;-145.68;100.00;63218.00;10452277;28;20856;-55
2022/05/01 04:38:16;;;;;;;11.27;6.13;;;;;;;-145.68;100.00;63218.00;10452398;28;20682;-57
2022/05/01 04:44:16;;;;;;;9.70;6.33;;;;;;;-145.68;100.00;63218.00;10452453;28;20729;-58
2022/05/01 04:50:17;;;;;;;9.00;5.20;;;;;;;-145.68;100.00;63218.00;10452405;28;20199;-55
2022/05/01 05:02:37;;;;;;;9.67;5.10;;;;;;;-145.68;100.00;63218.00;10452003;28;20223;-55
2022/05/01 05:14:57;;;;;;;7.47;4.70;;;;;;;-145.68;100.00;63218.00;10451797;28;20298;-55
2022/05/01 05:20:57;;;;;;;11.60;5.87;;;;;;;-145.68;100.00;63218.00;10451556;28;20216;-57
2022/05/01 05:26:56;;;;;;;11.77;8.40;;;;;;;-145.68;100.00;63218.00;10456334;28;20741;-56
2022/05/01 05:32:55;;;;;;;12.67;5.47;;;;;;;-145.68;100.00;63218.00;10458976;28;20281;-58
2022/05/01 05:38:54;;;;;;;6.87;4.67;;;;;;;-145.68;100.00;63218.00;10459003;28;20196;-58
2022/05/01 05:44:53;;;;;;;7.57;5.47;;;;;;;-145.68;100.00;63218.00;10458880;28;20232;-57
2022/05/01 05:50:51;;;;;;;9.10;6.43;;;;;;;-145.68;100.00;63218.00;10459150;28;20215;-56
2022/05/01 05:56:50;;;;;;;14.60;8.67;;;;;;;-145.68;100.00;63218.00;10458814;28;20195;-57
2022/05/01 06:02:49;;;;;;;8.53;5.67;;;;;;;-145.68;100.00;63218.00;10458397;28;20581;-57
2022/05/01 06:08:48;;;;;;;5.73;4.37;;;;;;;-145.68;100.00;63218.00;10458241;28;20184;-57
2022/05/01 06:14:47;;;;;;;14.17;9.67;;;;;;;-145.68;100.00;63218.00;10457899;28;20273;-54
2022/05/01 06:20:47;;;;;;;8.07;5.50;;;;;;;-145.68;100.00;63218.00;10457667;28;20208;-56
2022/05/01 06:26:46;;;;;;;7.68;5.57;;;;;;;-145.68;100.00;63218.00;10457166;28;20211;-60
2022/05/01 06:31:47;;;;;;;11.95;7.65;;;;;;;12.87;67.04;96791.81;10456688;28;20244;-60
2022/05/01 06:36:47;;;;;;;16.75;11.25;;;;;;;13.49;65.88;96791.09;10455746;28;20607;-58
2022/05/01 06:41:47;;;;;;;16.85;12.30;;;;;;;13.92;65.46;96811.75;10438917;28;20263;-60
2022/05/01 06:46:50;;;;;;;18.70;14.13;;;;;;;15.29;63.11;96805.53;10438530;28;20249;-60
2022/05/01 06:51:50;;;;;;;21.88;14.90;;;;;;;14.68;63.05;96792.53;10456781;28;20282;-60
2022/05/01 06:56:51;;;;;;;25.02;16.25;;;;;;;15.85;60.76;96770.66;10456020;28;20192;-58
2022/05/01 07:01:51;;;;;;;20.60;14.07;;;;;;;16.57;60.07;96779.38;10456303;28;20223;-58
2022/05/01 07:06:51;;;;;;;22.58;15.20;;;;;;;17.08;57.40;96741.22;10455985;28;20223;-59
2022/05/01 07:11:52;;;;;;;25.52;16.10;;;;;;;17.57;55.22;96716.34;10455595;28;20212;-60
2022/05/01 07:16:52;;;;;;;22.05;15.95;;;;;;;17.58;54.72;96717.97;10455723;28;20199;-58
2022/05/01 07:21:52;;;;;;;19.80;14.60;;;;;;;17.52;55.57;96752.38;10455067;28;20311;-57
2022/05/01 07:26:53;;;;;;;21.63;14.55;;;;;;;17.31;55.10;96738.28;10455351;28;20192;-60
2022/05/01 07:31:53;;;;;;;23.23;14.77;;;;;;;17.43;56.17;96776.41;10487259;23;20778;-60
2022/05/01 07:36:53;;;;;;;19.10;14.50;;;;;;;16.20;57.87;96791.88;10451243;28;21495;-59
2022/05/01 07:41:54;;;;;;;20.50;14.32;;;;;;;16.62;58.19;96815.84;10447712;28;20704;-60
2022/05/01 07:46:54;;;;;;;23.40;15.20;;;;;;;16.10;58.54;96818.66;10452436;28;20187;-58
2022/05/01 07:51:54;;;;;;;18.35;13.73;;;;;;;16.50;56.74;96773.22;10453802;28;20188;-60
2022/05/01 07:56:55;;;;;;;20.67;12.32;;;;;;;16.97;54.57;96745.25;10453820;28;20200;-60
2022/05/01 08:01:55;;;;;;;18.40;13.50;;;;;;;16.91;53.79;96722.22;10453299;28;20326;-62
2022/05/01 08:07:01;;;;;;;18.70;12.77;;;;;;;17.56;51.68;96692.69;10450781;28;20188;-61
2022/05/01 08:12:02;;;;;;;18.83;12.73;;;;;;;17.52;50.69;96670.25;10453415;28;20208;-60
2022/05/01 08:17:02;;;;;;;21.35;12.88;;;;;;;19.19;46.85;96611.63;10453031;28;20199;-61
2022/05/01 08:22:07;;;;;;;15.85;11.60;;;;;;;18.97;47.17;96624.41;10453164;28;20219;-62
2022/05/01 08:27:07;;;;;;;19.10;12.25;;;;;;;18.58;47.31;96616.38;10435240;28;20199;-62
2022/05/01 08:32:08;;;;;;;17.90;11.98;;;;;;;18.62;47.84;96643.28;10451973;28;20239;-62
2022/05/01 08:37:08;;;;;;;16.80;11.93;;;;;;;18.97;49.26;96677.50;10452829;28;20564;-63
2022/05/01 08:42:08;;;;;;;14.52;10.27;;;;;;;18.84;47.44;96630.56;10452196;28;20709;-59
2022/05/01 08:47:20;;;;;;;15.85;9.40;;;;;;;19.36;41.52;96481.78;10452643;28;20569;-63
2022/05/01 08:52:21;;;;;;;15.27;8.70;;;;;;;18.98;40.41;96438.34;10434857;28;20290;-63
2022/05/01 09:03:44;;;;;;;10.77;7.20;;;;;;;18.30;40.26;96438.97;10420275;28;20226;-62
2022/05/01 09:08:46;;;;;;;14.63;8.45;;;;;;;18.39;43.71;96548.28;10507059;28;20222;-61
2022/05/01 09:13:46;;;;;;;9.98;7.13;;;;;;;19.76;41.30;96510.63;10507158;28;20230;-63
2022/05/01 09:18:47;;;;;;;14.02;8.15;;;;;;;20.44;39.32;96476.94;10507259;28;20688;-63
2022/05/01 09:23:48;;;;;;;13.52;7.68;;;;;;;19.85;38.88;96432.25;10506652;28;20712;-62
2022/05/01 09:28:53;;;;;;;11.80;8.10;;;;;;;19.93;37.29;96385.94;10506962;28;20249;-62
2022/05/01 09:34:30;;;;;;;11.05;7.68;;;;;;;19.50;42.11;96547.03;10506516;28;20237;-62
2022/05/01 09:39:32;;;;;;;13.73;8.25;;;;;;;20.42;37.87;96437.25;10506895;28;20199;-63
2022/05/01 09:44:32;;;;;;;12.57;6.93;;;;;;;20.50;36.88;96396.19;10505917;28;20230;-63
2022/05/01 09:49:47;;;;;;;10.45;7.10;;;;;;;20.52;35.89;96378.16;10506804;28;20691;-63
2022/05/01 09:55:02;;;;;;;12.00;7.18;;;;;;;20.30;38.10;96441.69;10506373;28;20321;-62
2022/05/01 10:00:03;;;;;;;12.68;7.72;;;;;;;20.08;40.77;96532.59;10506586;28;20664;-63
2022/05/01 10:05:12;;;;;;;12.70;7.07;;;;;;;22.41;37.32;96490.09;10505942;28;20253;-63
2022/05/01 10:10:12;;;;;;;13.40;6.55;;;;;;;21.43;37.30;96459.69;10504499;28;20197;-64
2022/05/01 10:15:13;;;;;;;9.85;7.32;;;;;;;21.59;35.23;96395.03;10499446;28;20214;-63
2022/05/01 10:20:13;;;;;;;13.27;7.65;;;;;;;22.86;33.99;96396.88;10481327;28;20214;-63
2022/05/01 10:25:16;;;;;;;9.55;7.00;;;;;;;23.37;33.98;96413.72;10499089;28;20227;-63
2022/05/01 10:36:03;;;;;;;13.70;7.20;;;;;;;22.69;31.54;96290.06;10498280;28;20235;-63
2022/05/01 10:41:04;;;;;;;9.68;6.57;;;;;;;21.24;35.73;96395.88;10480706;28;20211;-61
2022/05/01 10:46:24;;;;;;;11.27;7.28;;;;;;;22.12;34.87;96390.50;10498336;28;20207;-63
2022/05/01 10:51:29;;;;;;;13.82;6.95;;;;;;;22.01;34.58;96386.03;10497868;28;20191;-62
2022/05/01 10:56:34;;;;;;;11.32;6.97;;;;;;;22.52;33.71;96370.94;10497152;28;20211;-63
2022/05/01 11:01:53;;;;;;;13.52;6.53;;;;;;;22.86;34.07;96399.53;10497448;28;20215;-63
2022/05/01 11:06:55;;;;;;;7.70;5.88;;;;;;;23.39;32.49;96355.47;10497304;28;20194;-63
2022/05/01 11:11:57;;;;;;;9.43;6.65;;;;;;;23.61;31.74;96333.28;10478817;28;20205;-62
2022/05/01 11:16:57;;;;;;;9.05;7.05;;;;;;;22.65;35.39;96430.44;10497178;28;20635;-63
2022/05/01 11:21:58;;;;;;;13.00;7.65;;;;;;;22.01;37.74;96493.53;10496279;28;20314;-64
2022/05/01 11:27:10;;;;;;;10.48;7.70;;;;;;;21.25;36.33;96405.47;10479050;28;20202;-64
2022/05/01 11:32:18;;;;;;;6.80;5.93;;;;;;;23.19;34.27;96400.63;10496252;28;20284;-64
2022/05/01 11:37:20;;;;;;;9.80;7.05;;;;;;;23.75;32.35;96334.53;10496170;28;20194;-63
2022/05/01 11:42:27;;;;;;;8.20;6.43;;;;;;;23.86;33.83;96418.41;10495954;28;20277;-63
2022/05/01 11:47:28;;;;;;;10.90;7.78;;;;;;;;;;10495754;28;20203;-63
2022/05/01 11:52:28;;;;;;;9.80;7.78;;;;;;;22.75;36.58;96471.47;10495649;28;20238;-62
2022/05/01 12:02:56;;;;;;;6.95;6.03;;;;;;;22.61;37.53;96499.53;10495112;28;20223;-62
2022/05/01 12:07:56;;;;;;;9.10;6.97;;;;;;;22.52;35.71;96423.53;10495238;28;20274;-61
2022/05/01 12:12:56;;;;;;;9.52;6.32;;;;;;;21.49;37.31;96448.09;10494437;28;20294;-62
2022/05/01 12:17:57;;;;;;;9.00;6.15;;;;;;;22.51;33.46;96341.81;10476940;28;20552;-61
2022/05/01 12:22:57;;;;;;;8.15;6.28;;;;;;;22.32;34.20;96350.06;10494471;28;20720;-61
2022/05/01 12:27:58;;;;;;;11.50;6.60;;;;;;;21.42;36.77;96416.22;10494329;28;20191;-61
2022/05/01 12:32:59;;;;;;;10.68;7.05;;;;;;;21.34;37.50;96413.94;10475594;28;20227;-61
2022/05/01 12:37:59;;;;;;;23.63;11.00;;;;;;;21.62;39.08;96489.72;10492235;28;20195;-62
2022/05/01 12:48:19;;;;;;;10.82;5.70;;;;;;;22.25;37.71;96456.09;10493968;28;20202;-62
2022/05/01 12:53:27;;;;;;;8.98;5.88;;;;;;;22.46;35.44;96373.78;10493792;28;20577;-62
2022/05/01 12:58:32;;;;;;;8.02;5.70;;;;;;;23.37;35.21;96411.06;10493857;28;20187;-62
2022/05/01 13:03:38;;;;;;;10.57;4.95;;;;;;;22.65;36.88;96428.59;10497688;28;20227;-60
2022/05/01 13:08:50;;;;;;;12.38;6.13;;;;;;;21.17;38.48;96435.13;10502022;28;20654;-61
2022/05/01 13:14:08;;;;;;;11.02;5.68;;;;;;;21.32;38.67;96454.13;10455757;28;20207;-60
2022/05/01 13:19:21;;;;;;;9.45;5.50;;;;;;;22.33;37.27;96438.94;10440415;28;20196;-62
2022/05/01 13:24:53;;;;;;;8.75;4.95;;;;;;;22.74;37.23;96453.84;10433793;28;20232;-62
2022/05/01 13:30:46;;;;;;;8.32;4.72;;;;;;;21.29;37.56;96390.66;10489976;28;20214;-62
2022/05/01 13:36:48;;;;;;;9.63;5.68;;;;;;;21.89;36.69;96394.84;10446942;28;20236;-61
2022/05/01 13:48:05;;;;;;;6.90;5.40;;;;;;;21.12;38.68;96427.03;10420325;28;20671;-59
2022/05/01 13:53:27;;;;;;;7.70;5.25;;;;;;;20.28;42.19;96513.75;10424556;28;20208;-60
2022/05/01 13:58:39;;;;;;;7.85;5.07;;;;;;;20.43;40.37;96464.69;10384934;28;20197;-61
2022/05/01 14:03:39;;;;;;;7.45;5.28;;;;;;;20.25;40.25;96463.66;10377727;28;20217;-59
2022/05/01 14:08:40;;;;;;;8.43;5.22;;;;;;;20.17;41.74;96497.72;10374002;28;20193;-60
2022/05/01 14:13:40;;;;;;;10.25;5.78;;;;;;;20.59;40.78;96469.34;10374864;28;20219;-60
2022/05/01 14:18:42;;;;;;;10.73;6.53;;;;;;;18.91;43.16;96481.91;10375029;28;20197;-59
2022/05/01 14:23:43;;;;;;;9.85;5.97;;;;;;;18.55;44.83;96526.59;10373437;28;20600;-59
2022/05/01 14:28:44;;;;;;;11.48;6.22;;;;;;;18.64;42.71;96461.63;10374313;28;20675;-60
2022/05/01 14:33:47;;;;;;;6.93;5.55;;;;;;;18.99;43.50;96508.19;10388035;28;20239;-60
2022/05/01 14:39:07;;;;;;;11.70;6.07;;;;;;;19.23;42.44;96488.81;10410342;28;20223;-59
2022/05/01 14:44:08;;;;;;;8.60;5.13;;;;;;;19.71;40.43;96442.19;10415526;28;20244;-61
2022/05/01 14:49:21;;;;;;;10.77;5.88;;;;;;;18.95;41.76;96443.28;10427304;28;20676;-60
2022/05/01 14:54:22;;;;;;;8.45;5.70;;;;;;;18.24;42.23;96435.34;10424465;28;20557;-60
2022/05/01 15:10:04;;;;;;;10.18;5.03;;;;;;;18.46;42.06;96433.16;10404129;28;20193;-61
2022/05/01 15:15:04;;;;;;;8.85;4.63;;;;;;;18.68;41.27;96419.56;10414736;28;20288;-60
2022/05/01 15:20:20;;;;;;;6.65;4.20;;;;;;;18.16;43.33;96470.03;10414011;28;20275;-60
2022/05/01 15:25:29;;;;;;;7.30;4.40;;;;;;;18.01;41.97;96422.59;10397439;28;20628;-60
2022/05/01 15:30:35;;;;;;;7.60;4.55;;;;;;;17.64;43.24;96456.72;10396178;28;20189;-60
2022/05/01 15:35:40;;;;;;;6.60;3.72;;;;;;;17.82;43.16;96466.66;10413405;28;20236;-59
2022/05/01 15:40:46;;;;;;;8.77;6.03;;;;;;;17.68;42.26;96431.44;10413113;28;20188;-61
2022/05/01 15:45:55;;;;;;;11.85;4.22;;;;;;;18.12;42.72;96458.25;10380050;28;20221;-58
2022/05/01 15:56:18;;;;;;;9.55;4.80;;;;;;;18.45;43.11;96471.34;10371153;28;20213;-61
2022/05/01 16:01:22;;;;;;;16.48;9.63;;;;;;;18.71;42.47;96454.47;10353539;28;20692;-61
2022/05/01 16:06:23;;;;;;;14.13;8.13;;;;;;;18.89;41.67;96435.16;10368228;28;20213;-59
2022/05/01 16:11:40;;;;;;;9.85;4.00;;;;;;;19.03;38.77;96337.63;10369881;28;20647;-61
2022/05/01 16:16:57;;;;;;;4.90;3.67;;;;;;;20.24;38.88;96394.72;10353542;28;20193;-61
2022/05/01 16:22:22;;;;;;;10.68;4.40;;;;;;;20.46;37.59;96345.28;10371675;28;20221;-60
2022/05/01 16:27:28;;;;;;;13.68;9.65;;;;;;;21.43;36.92;96364.56;10367861;28;20199;-61
2022/05/01 16:32:57;;;;;;;10.88;6.95;;;;;;;20.84;36.46;96322.78;10388621;28;20699;-60
2022/05/01 16:38:00;;;;;;;8.32;4.63;;;;;;;19.02;38.53;96324.56;10340976;28;20216;-61
2022/05/01 16:43:02;;;;;;;7.10;4.38;;;;;;;18.23;40.06;96340.91;10325179;28;20225;-61
2022/05/01 16:48:06;;;;;;;11.15;8.70;;;;;;;18.13;40.97;96372.38;10327155;28;20198;-61
2022/05/01 16:53:08;;;;;;;11.15;7.63;;;;;;;17.73;41.70;96378.63;10328779;28;20212;-61
2022/05/01 16:58:10;;;;;;;61.78;48.35;;;;;;;17.93;42.08;96404.28;10329278;28;20212;-61
2022/05/01 17:03:20;;;;;;;8.65;7.75;;;;;;;18.15;39.94;96343.81;10311822;28;20229;-61
2022/05/01 17:08:30;;;;;;;9.13;6.63;;;;;;;17.64;42.23;96406.38;10328483;28;20202;-61
2022/05/01 17:13:41;;;;;;;17.45;14.73;;;;;;;16.61;47.11;96515.31;10329264;28;20220;-62
2022/05/01 17:18:56;;;;;;;19.25;15.57;;;;;;;16.11;48.38;96529.59;10311266;28;20281;-62
2022/05/01 17:24:03;;;;;;;11.88;7.53;;;;;;;15.57;49.83;96565.38;10336872;28;20229;-61
2022/05/01 17:29:11;;;;;;;10.98;7.25;;;;;;;15.46;50.84;96594.94;10336454;28;20280;-60
2022/05/01 17:34:15;;;;;;;14.15;11.25;;;;;;;15.20;52.57;96641.19;10346751;28;20692;-58
2022/05/01 17:39:16;;;;;;;27.77;15.52;;;;;;;14.78;53.02;96654.13;10384031;28;20200;-60
2022/05/01 17:44:18;;;;;;;15.85;8.98;;;;;;;14.34;53.64;96656.75;10417640;28;20766;-62
2022/05/01 17:49:21;;;;;;;33.88;21.83;;;;;;;14.12;54.63;96682.16;10399965;28;20242;-60
2022/05/01 17:54:22;;;;;;;57.75;37.97;;;;;;;13.86;55.58;96707.13;10424767;28;20204;-59
2022/05/01 17:59:25;;;;;;;18.38;10.75;;;;;;;13.51;57.81;96747.00;10455621;28;20219;-60
2022/05/01 18:10:51;;;;;;;12.55;7.43;;;;;;;12.99;60.66;96808.06;10247664;29;20195;-60
2022/05/01 18:15:56;;;;;;;5.68;4.18;;;;;;;12.19;64.41;96861.34;10438239;28;20289;-59
2022/05/01 18:20:59;;;;;;;9.63;4.82;;;;;;;11.99;65.47;96873.97;10439133;28;20192;-58
2022/05/01 18:26:45;;;;;;;10.25;6.53;;;;;;;10.52;70.68;96925.44;10456533;28;20673;-61
2022/05/01 18:32:03;;;;;;;10.73;6.27;;;;;;;10.42;73.34;96909.81;10450183;28;20228;-58
2022/05/01 18:37:06;;;;;;;6.97;5.17;;;;;;;10.43;72.54;96868.72;10455158;28;20253;-59
2022/05/01 18:42:07;;;;;;;7.53;4.97;;;;;;;10.09;74.75;96880.72;10438628;28;20251;-60
2022/05/01 18:47:08;;;;;;;7.80;4.57;;;;;;;9.84;76.28;96894.50;10438487;28;20191;-60
2022/05/01 18:52:09;;;;;;;5.63;4.23;;;;;;;9.67;77.52;96901.34;10452965;28;20231;-58
2022/05/01 18:57:12;;;;;;;6.67;5.07;;;;;;;9.36;79.29;96904.25;10453416;28;20196;-58
2022/05/01 19:02:14;;;;;;;9.60;5.53;;;;;;;9.13;81.10;96911.59;10454738;28;20219;-57
2022/05/01 19:07:27;;;;;;;5.87;5.07;;;;;;;9.14;82.03;96916.69;10455660;28;20198;-59
2022/05/01 19:12:34;;;;;;;13.23;8.53;;;;;;;8.89;83.92;96920.75;10436934;28;20269;-57
2022/05/01 19:17:37;;;;;;;10.20;4.67;;;;;;;8.85;84.20;96929.84;10454734;28;20200;-58
2022/05/01 19:22:48;;;;;;;8.43;4.67;;;;;;;8.74;85.85;96929.03;10454155;28;20338;-58
2022/05/01 19:27:55;;;;;;;6.80;4.20;;;;;;;8.61;87.12;96944.16;10454542;28;20322;-57
2022/05/01 19:33:18;;;;;;;11.70;4.83;;;;;;;8.46;89.66;96948.97;10453894;28;21020;-59
2022/05/01 19:38:22;;;;;;;6.93;4.73;;;;;;;8.38;90.37;96951.44;10432521;28;20188;-57
2022/05/01 19:43:31;;;;;;;6.53;4.90;;;;;;;8.32;91.42;96951.97;10453081;28;20232;-59
2022/05/01 19:54:00;;;;;;;10.80;4.93;;;;;;;8.15;94.10;96962.09;10450541;28;20215;-60
2022/05/01 19:59:02;;;;;;;7.93;4.60;;;;;;;8.16;94.69;96965.53;10435072;28;20196;-57
2022/05/01 20:04:03;;;;;;;10.23;4.60;;;;;;;8.08;95.93;96963.59;10453183;28;20236;-56
2022/05/01 20:09:08;;;;;;;6.13;4.43;;;;;;;8.00;97.48;96968.69;10451477;28;20274;-57
2022/05/01 20:14:09;;;;;;;7.33;4.80;;;;;;;8.00;98.06;96972.09;10446483;28;20208;-59
2022/05/01 20:19:22;;;;;;;7.43;4.37;;;;;;;7.93;99.53;96976.22;10453053;28;20196;-58
2022/05/01 20:24:33;;;;;;;7.03;4.70;;;;;;;7.98;99.85;96983.66;10452463;28;20702;-57
2022/05/01 20:29:43;;;;;;;8.60;4.27;;;;;;;7.85;100.00;96979.47;10452360;28;20188;-57
2022/05/01 20:34:51;;;;;;;7.13;4.90;;;;;;;7.78;100.00;96982.75;10434552;28;20224;-58
2022/05/01 20:40:06;;;;;;;8.33;4.87;;;;;;;7.70;100.00;96982.59;10452267;28;20181;-55
2022/05/01 20:45:08;;;;;;;10.30;5.10;;;;;;;7.65;100.00;96982.97;10451753;28;20229;-60
2022/05/01 20:50:13;;;;;;;8.30;4.87;;;;;;;7.52;100.00;96990.19;10452209;28;20198;-55
2022/05/01 20:55:14;;;;;;;7.50;4.07;;;;;;;7.66;100.00;96982.03;10451410;28;20264;-57
2022/05/01 21:00:15;;;;;;;7.80;4.93;;;;;;;7.60;100.00;96979.94;10434199;28;20221;-56
2022/05/01 21:05:15;;;;;;;9.67;4.60;;;;;;;7.56;100.00;96978.56;10454351;28;20238;-57
2022/05/01 21:10:16;;;;;;;7.27;5.20;;;;;;;7.38;100.00;96976.56;10448955;28;20662;-58
2022/05/01 21:15:18;;;;;;;7.27;4.80;;;;;;;7.27;100.00;96974.03;10449426;28;20231;-57
2022/05/01 21:20:18;;;;;;;14.80;5.13;;;;;;;7.23;100.00;96967.41;10451096;28;20655;-56
2022/05/01 21:25:18;;;;;;;5.10;4.60;;;;;;;7.14;100.00;96966.41;10451053;28;20220;-58
2022/05/01 21:35:41;;;;;;;7.70;4.73;;;;;;;7.06;100.00;96977.47;10450699;28;20710;-60
2022/05/01 21:40:41;;;;;;;6.73;4.83;;;;;;;6.97;100.00;96965.22;10450954;28;20220;-55
2022/05/01 21:45:42;;;;;;;6.53;5.03;;;;;;;6.94;100.00;96974.13;10450620;28;20323;-56
2022/05/01 21:50:42;;;;;;;8.03;5.17;;;;;;;6.94;100.00;96960.28;10450843;28;20196;-54
2022/05/01 21:55:42;;;;;;;8.07;4.50;;;;;;;6.96;100.00;96963.56;10450800;28;20204;-56
2022/05/01 22:00:44;;;;;;;8.33;4.77;;;;;;;6.97;100.00;96965.22;10451165;28;20192;-58
2022/05/01 22:05:44;;;;;;;5.93;4.73;;;;;;;6.89;100.00;96965.03;10433972;28;20235;-59
2022/05/01 22:10:45;;;;;;;8.23;5.07;;;;;;;6.91;100.00;96970.94;10457735;28;20188;-59
2022/05/01 22:15:45;;;;;;;6.07;5.10;;;;;;;6.88;100.00;96964.19;10457913;28;20231;-58
2022/05/01 22:20:46;;;;;;;9.03;4.43;;;;;;;6.84;100.00;96960.19;10457927;28;20314;-59
2022/05/01 22:25:46;;;;;;;6.20;4.53;;;;;;;6.78;100.00;96963.31;10457678;28;20227;-60
2022/05/01 22:30:46;;;;;;;9.67;5.67;;;;;;;6.81;100.00;96960.44;10457610;28;20191;-59
2022/05/01 22:41:27;;;;;;;7.50;4.97;;;;;;;6.91;100.00;96953.53;10329696;28;20582;-57
2022/05/01 22:46:27;;;;;;;7.07;4.30;;;;;;;6.90;100.00;96951.06;10428289;28;20223;-59
2022/05/01 22:51:28;;;;;;;8.30;4.93;;;;;;;6.75;100.00;96947.94;10456769;28;20196;-56
2022/05/01 22:56:28;;;;;;;5.20;4.30;;;;;;;6.71;100.00;96949.97;10456497;28;20219;-55
2022/05/01 23:01:29;;;;;;;7.60;4.57;;;;;;;6.65;100.00;96939.25;10456271;28;20269;-58
2022/05/01 23:06:30;;;;;;;6.80;4.70;;;;;;;6.62;100.00;96939.50;10456044;28;20207;-56
2022/05/01 23:11:31;;;;;;;7.20;4.63;;;;;;;6.64;100.00;96928.00;10455816;28;20192;-58
2022/05/01 23:16:33;;;;;;;6.83;5.00;;;;;;;6.64;100.00;96933.19;10455625;28;20207;-57
2022/05/01 23:21:33;;;;;;;5.37;4.17;;;;;;;6.52;100.00;96937.63;10455058;28;20223;-55
2022/05/01 23:26:34;;;;;;;6.33;4.63;;;;;;;6.40;100.00;96930.81;10455176;28;20674;-59
2022/05/01 23:31:34;;;;;;;6.33;4.77;;;;;;;6.35;100.00;96928.59;10454875;28;20576;-56
2022/05/01 23:36:34;;;;;;;7.20;4.63;;;;;;;6.29;100.00;96931.69;10453361;28;20757;-56
2022/05/01 23:41:35;;;;;;;6.17;4.67;;;;;;;6.27;100.00;96927.59;10451050;28;20685;-54
2022/05/01 23:46:35;;;;;;;6.63;5.13;;;;;;;6.10;100.00;96921.16;10454329;28;20277;-59
2022/05/01 23:51:35;;;;;;;9.37;4.80;;;;;;;5.94;100.00;96916.31;10454076;28;20187;-60
2022/05/01 23:56:36;;;;;;;7.07;5.20;;;;;;;5.92;100.00;96919.03;10453941;28;20247;-60
